Time;durP1;ratioP1;P1;durP2;ratioP2;P2;SDS_P1;SDS_P2;PMS_P1;PMS_P2;Temp;Humidity;BMP_temperature;BMP_pressure;BME280_temperature;BME280_humidity;BME280_pressure;Samples;Min_cycle;Max_cycle;Signal;HPM_P1;HPM_P2
2023/07/18 00:00:32;;;;;;;5.95;3.47;;;21.00;99.90;;;;;;5091765;28;20031;-59
2023/07/18 00:02:59;;;;;;;7.80;2.88;;;20.90;99.90;;;;;;5091266;28;20558;-60
2023/07/18 00:05:25;;;;;;;5.57;3.05;;;20.80;99.90;;;;;;5090934;28;20035;-60
2023/07/18 00:07:51;;;;;;;4.93;3.38;;;20.70;99.90;;;;;;5091651;28;20475;-60
2023/07/18 00:10:19;;;;;;;4.78;2.90;;;20.60;99.90;;;;;;5090872;28;20260;-60
2023/07/18 00:12:44;;;;;;;6.68;3.13;;;20.60;99.90;;;;;;5091698;28;20103;-60
2023/07/18 00:15:11;;;;;;;7.03;3.42;;;20.60;99.90;;;;;;5091282;28;20586;-60
2023/07/18 00:17:37;;;;;;;5.70;3.20;;;20.60;99.90;;;;;;5090725;28;20055;-60
2023/07/18 00:20:12;;;;;;;6.78;3.20;;;20.60;99.90;;;;;;5090661;28;20055;-60
2023/07/18 00:22:40;;;;;;;5.88;3.17;;;20.50;99.90;;;;;;5090804;28;20040;-60
2023/07/18 00:25:13;;;;;;;5.65;3.05;;;20.50;99.90;;;;;;5091266;28;20028;-60
2023/07/18 00:27:40;;;;;;;6.65;2.95;;;20.50;99.90;;;;;;5090987;28;20031;-60
2023/07/18 00:30:08;;;;;;;7.28;3.03;;;20.50;99.90;;;;;;5091390;28;20031;-60
2023/07/18 00:32:33;;;;;;;4.43;2.80;;;20.50;99.90;;;;;;5090872;28;20137;-60
2023/07/18 00:35:00;;;;;;;4.05;2.80;;;20.50;99.90;;;;;;5090541;28;20041;-58
2023/07/18 00:37:26;;;;;;;5.03;2.80;;;20.50;99.90;;;;;;5090634;28;20387;-59
2023/07/18 00:39:53;;;;;;;6.88;2.90;;;20.70;99.90;;;;;;5091042;28;20078;-60
2023/07/18 00:42:19;;;;;;;6.10;2.70;;;20.90;99.90;;;;;;5091262;28;20028;-60
2023/07/18 00:44:48;;;;;;;8.27;3.45;;;20.80;99.90;;;;;;5090920;28;20028;-60
2023/07/18 00:47:14;;;;;;;6.93;3.00;;;21.10;99.90;;;;;;5090762;28;20024;-60
2023/07/18 00:49:40;;;;;;;5.60;2.80;;;21.10;99.90;;;;;;5090656;28;20443;-60
2023/07/18 00:52:06;;;;;;;4.43;2.80;;;21.20;99.90;;;;;;5090770;28;20017;-60
2023/07/18 00:54:33;;;;;;;4.75;2.67;;;21.20;99.90;;;;;;5091687;28;20406;-59
2023/07/18 00:56:59;;;;;;;5.53;2.70;;;21.10;99.90;;;;;;5094881;28;20439;-60
2023/07/18 00:59:27;;;;;;;5.03;2.60;;;21.10;99.90;;;;;;5094577;28;20024;-60
2023/07/18 01:01:53;;;;;;;5.22;2.88;;;21.10;99.90;;;;;;5094465;28;20020;-60
2023/07/18 01:04:19;;;;;;;4.65;2.78;;;21.00;99.90;;;;;;5093998;28;20518;-60
2023/07/18 01:06:46;;;;;;;8.07;2.80;;;21.00;99.90;;;;;;5094844;28;20017;-60
2023/07/18 01:09:12;;;;;;;5.05;3.05;;;21.00;99.90;;;;;;5094298;28;20120;-60
2023/07/18 01:11:38;;;;;;;4.93;3.10;;;20.90;99.90;;;;;;5094441;28;20050;-59
2023/07/18 01:14:03;;;;;;;4.95;2.95;;;20.90;99.90;;;;;;5094155;28;20031;-60
2023/07/18 01:16:30;;;;;;;5.88;2.90;;;20.80;99.90;;;;;;5094446;28;20093;-60
2023/07/18 01:18:55;;;;;;;5.10;2.65;;;20.70;99.90;;;;;;5093526;28;20040;-60
2023/07/18 01:21:22;;;;;;;4.80;2.90;;;20.50;99.90;;;;;;5094069;28;20031;-60
2023/07/18 01:23:48;;;;;;;3.90;2.70;;;20.40;99.90;;;;;;5093889;28;20051;-60
2023/07/18 01:26:14;;;;;;;5.93;3.00;;;20.40;99.90;;;;;;5093999;28;20508;-60
2023/07/18 01:28:40;;;;;;;6.03;3.30;;;20.40;99.90;;;;;;5094080;28;20031;-59
2023/07/18 01:31:06;;;;;;;4.88;2.97;;;20.40;99.90;;;;;;5094092;28;20371;-60
2023/07/18 01:33:32;;;;;;;5.93;3.22;;;20.30;99.90;;;;;;5093702;28;20069;-59
2023/07/18 01:35:58;;;;;;;4.22;2.90;;;20.30;99.90;;;;;;5093926;28;20024;-60
2023/07/18 01:38:29;;;;;;;4.85;2.92;;;20.20;99.90;;;;;;5094159;28;20445;-60
2023/07/18 01:40:59;;;;;;;8.48;3.33;;;20.30;99.90;;;;;;5094286;28;20050;-59
2023/07/18 01:43:25;;;;;;;5.53;3.08;;;20.30;99.90;;;;;;5093880;28;20074;-60
2023/07/18 01:45:51;;;;;;;6.95;3.35;;;20.20;99.90;;;;;;5093789;28;20957;-60
2023/07/18 01:48:18;;;;;;;5.28;3.10;;;20.20;99.90;;;;;;5093303;28;20024;-60
2023/07/18 01:50:44;;;;;;;5.30;3.30;;;20.20;99.90;;;;;;5093538;28;20028;-60
2023/07/18 01:53:11;;;;;;;4.75;3.20;;;20.20;99.90;;;;;;5093381;28;20107;-59
2023/07/18 01:55:39;;;;;;;7.90;3.00;;;20.50;99.90;;;;;;5093488;28;20020;-59
2023/07/18 01:58:05;;;;;;;6.65;3.40;;;20.50;99.90;;;;;;5093652;28;20067;-59
2023/07/18 02:00:32;;;;;;;5.15;3.45;;;20.50;99.90;;;;;;5093446;28;20024;-60
2023/07/18 02:02:58;;;;;;;7.22;3.22;;;20.60;99.90;;;;;;5092987;28;20443;-59
2023/07/18 02:05:30;;;;;;;6.10;3.25;;;20.60;99.90;;;;;;5092900;28;20024;-60
2023/07/18 02:07:57;;;;;;;6.63;3.33;;;20.70;99.90;;;;;;5093598;28;20031;-60
2023/07/18 02:10:24;;;;;;;7.22;3.13;;;20.70;99.90;;;;;;5093247;28;20020;-60
2023/07/18 02:12:52;;;;;;;4.30;3.10;;;20.70;99.90;;;;;;5093258;28;20398;-60
2023/07/18 02:15:19;;;;;;;4.32;3.00;;;20.70;99.90;;;;;;5091536;28;20425;-60
2023/07/18 02:17:45;;;;;;;5.38;3.35;;;20.70;99.90;;;;;;5092985;28;20066;-60
2023/07/18 02:20:12;;;;;;;4.70;3.38;;;20.80;99.90;;;;;;5092929;28;20024;-60
2023/07/18 02:22:39;;;;;;;4.45;3.20;;;20.80;99.90;;;;;;5092755;28;20036;-60
2023/07/18 02:25:05;;;;;;;4.70;3.13;;;20.70;99.90;;;;;;5092773;28;20037;-60
2023/07/18 02:27:32;;;;;;;6.20;3.30;;;20.70;99.90;;;;;;5092920;28;20071;-58
2023/07/18 02:30:00;;;;;;;6.32;3.60;;;20.60;99.90;;;;;;5092773;28;20024;-60
2023/07/18 02:32:29;;;;;;;6.07;3.55;;;20.40;99.90;;;;;;5092331;28;20085;-60
2023/07/18 02:34:55;;;;;;;6.57;3.38;;;20.40;99.90;;;;;;5092012;28;20024;-60
2023/07/18 02:37:20;;;;;;;5.68;3.72;;;20.30;99.90;;;;;;5092579;28;20077;-60
2023/07/18 02:39:46;;;;;;;6.53;3.72;;;20.30;99.90;;;;;;5092588;28;20031;-60
2023/07/18 02:42:12;;;;;;;5.50;3.20;;;20.10;99.90;;;;;;5092844;28;20073;-60
2023/07/18 02:44:38;;;;;;;5.40;3.53;;;20.10;99.90;;;;;;5092610;28;20060;-60
2023/07/18 02:47:04;;;;;;;5.13;3.47;;;20.00;99.90;;;;;;5091987;28;20024;-59
2023/07/18 02:49:30;;;;;;;6.22;3.55;;;20.00;99.90;;;;;;5092462;28;20525;-60
2023/07/18 02:51:55;;;;;;;4.40;3.92;;;20.00;99.90;;;;;;5092491;28;20056;-60
2023/07/18 02:54:22;;;;;;;5.75;3.85;;;20.00;99.90;;;;;;5092619;28;20093;-60
2023/07/18 02:56:48;;;;;;;6.53;3.80;;;19.90;99.90;;;;;;5091962;28;20074;-60
2023/07/18 02:59:14;;;;;;;7.18;3.80;;;20.00;99.90;;;;;;5091955;28;20036;-59
2023/07/18 03:01:40;;;;;;;6.55;3.60;;;20.00;99.90;;;;;;5092255;28;20487;-59
2023/07/18 03:04:05;;;;;;;5.45;3.72;;;20.00;99.90;;;;;;5092267;28;20032;-61
2023/07/18 03:06:31;;;;;;;7.95;3.85;;;20.00;99.90;;;;;;5092235;28;20039;-60
2023/07/18 03:08:57;;;;;;;6.00;4.03;;;19.90;99.90;;;;;;5092115;28;20024;-60
2023/07/18 03:11:23;;;;;;;6.78;3.60;;;20.10;99.90;;;;;;5092368;28;20031;-59
2023/07/18 03:13:49;;;;;;;5.35;3.80;;;20.10;99.90;;;;;;5091716;28;20031;-59
2023/07/18 03:16:15;;;;;;;7.85;3.90;;;20.20;99.90;;;;;;5091826;28;20448;-60
2023/07/18 03:18:41;;;;;;;5.07;3.55;;;20.40;99.90;;;;;;5090473;28;20048;-60
2023/07/18 03:21:07;;;;;;;6.22;3.70;;;20.60;99.90;;;;;;5092203;28;20097;-60
2023/07/18 03:23:32;;;;;;;5.80;3.78;;;20.60;99.90;;;;;;5091625;28;20059;-59
2023/07/18 03:25:58;;;;;;;5.82;3.90;;;20.60;99.90;;;;;;5091551;28;20016;-60
2023/07/18 03:28:24;;;;;;;5.20;3.53;;;20.60;99.90;;;;;;5091473;28;20024;-60
2023/07/18 03:30:49;;;;;;;6.63;4.05;;;20.50;99.90;;;;;;5091687;28;20027;-60
2023/07/18 03:33:16;;;;;;;6.95;4.18;;;20.50;99.90;;;;;;5092136;28;20122;-59
2023/07/18 03:35:42;;;;;;;6.10;4.13;;;20.50;99.90;;;;;;5091713;28;20479;-59
2023/07/18 03:38:07;;;;;;;6.35;3.70;;;20.40;99.90;;;;;;5091400;28;20111;-59
2023/07/18 03:40:33;;;;;;;6.35;3.58;;;20.50;99.90;;;;;;5091442;28;20051;-59
2023/07/18 03:42:59;;;;;;;5.57;3.95;;;20.40;99.90;;;;;;5091214;28;20093;-60
2023/07/18 03:45:24;;;;;;;6.15;4.28;;;20.30;99.90;;;;;;5091864;28;20497;-60
2023/07/18 03:47:50;;;;;;;7.30;4.40;;;20.10;99.90;;;;;;5091485;28;20028;-60
2023/07/18 03:50:17;;;;;;;7.68;3.70;;;20.00;99.90;;;;;;5091337;28;20125;-60
2023/07/18 03:52:42;;;;;;;4.70;3.95;;;19.90;99.90;;;;;;5090155;28;20027;-60
2023/07/18 03:55:08;;;;;;;6.15;4.15;;;19.90;99.90;;;;;;5091397;28;20024;-60
2023/07/18 03:57:34;;;;;;;6.53;4.07;;;19.90;99.90;;;;;;5090885;28;20031;-59
2023/07/18 04:00:06;;;;;;;7.50;4.43;;;19.90;99.90;;;;;;5091310;28;20077;-60
2023/07/18 04:02:31;;;;;;;5.22;4.10;;;19.80;99.90;;;;;;5091550;28;20024;-60
2023/07/18 04:04:57;;;;;;;7.07;4.38;;;19.80;99.90;;;;;;5091268;28;20028;-60
2023/07/18 04:07:23;;;;;;;7.55;4.00;;;19.70;99.90;;;;;;5091020;28;20098;-60
2023/07/18 04:09:49;;;;;;;7.80;4.80;;;19.70;99.90;;;;;;5091174;28;20100;-60
2023/07/18 04:12:16;;;;;;;6.43;4.20;;;19.70;99.90;;;;;;5090759;28;20089;-60
2023/07/18 04:14:42;;;;;;;6.72;4.00;;;19.60;99.90;;;;;;5091247;28;20410;-59
2023/07/18 04:17:08;;;;;;;6.82;4.25;;;19.50;99.90;;;;;;5091000;28;20117;-60
2023/07/18 04:19:34;;;;;;;4.70;3.70;;;19.60;99.90;;;;;;5091087;28;20024;-60
2023/07/18 04:22:00;;;;;;;6.65;4.25;;;19.60;99.90;;;;;;5091111;28;20403;-60
2023/07/18 04:24:25;;;;;;;5.45;4.05;;;19.60;99.90;;;;;;5090952;28;20063;-60
2023/07/18 04:26:51;;;;;;;5.85;4.35;;;19.70;99.90;;;;;;5090676;28;20064;-60
2023/07/18 04:29:18;;;;;;;6.80;4.43;;;19.80;99.90;;;;;;5092921;28;20024;-60
2023/07/18 04:31:44;;;;;;;6.93;4.15;;;20.00;99.90;;;;;;5095649;28;20059;-59
2023/07/18 04:34:10;;;;;;;7.40;4.22;;;20.20;99.90;;;;;;5094744;28;20021;-59
2023/07/18 04:36:36;;;;;;;5.60;4.22;;;20.20;99.90;;;;;;5095345;28;20208;-60
2023/07/18 04:39:01;;;;;;;7.18;4.13;;;20.10;99.90;;;;;;5094919;28;20501;-60
2023/07/18 04:41:27;;;;;;;4.97;3.63;;;20.30;99.90;;;;;;5094607;28;20026;-59
2023/07/18 04:43:53;;;;;;;7.15;4.00;;;20.40;99.90;;;;;;5095040;28;20023;-60
2023/07/18 04:46:19;;;;;;;7.47;4.63;;;20.60;99.90;;;;;;5095154;28;20035;-60
2023/07/18 04:48:45;;;;;;;6.10;4.25;;;20.60;99.90;;;;;;5094960;28;20077;-60
2023/07/18 04:51:10;;;;;;;4.95;4.10;;;20.50;99.90;;;;;;5094925;28;20115;-60
2023/07/18 04:53:36;;;;;;;5.78;4.18;;;20.40;99.90;;;;;;5094786;28;20028;-60
2023/07/18 04:56:04;;;;;;;8.15;4.75;;;20.40;99.90;;;;;;5094806;28;20031;-60
2023/07/18 04:58:29;;;;;;;4.57;3.90;;;20.40;99.90;;;;;;5094601;28;20414;-60
2023/07/18 05:00:56;;;;;;;7.63;4.55;;;20.30;99.90;;;;;;5094416;28;20020;-60
2023/07/18 05:03:22;;;;;;;7.72;4.20;;;20.30;99.90;;;;;;5095047;28;20032;-60
2023/07/18 05:05:47;;;;;;;5.30;4.05;;;20.30;99.90;;;;;;5094476;28;20012;-60
2023/07/18 05:08:13;;;;;;;10.10;4.65;;;20.30;99.90;;;;;;5094350;28;20103;-60
2023/07/18 05:10:40;;;;;;;5.80;3.92;;;20.30;99.90;;;;;;5093924;28;20031;-60
2023/07/18 05:13:06;;;;;;;5.75;4.15;;;20.10;99.90;;;;;;5094311;28;20186;-60
2023/07/18 05:15:32;;;;;;;7.22;3.83;;;20.10;99.90;;;;;;5094117;28;20024;-60
2023/07/18 05:17:58;;;;;;;6.40;4.20;;;20.00;99.90;;;;;;5094222;28;20028;-60
2023/07/18 05:20:23;;;;;;;6.47;4.13;;;20.10;99.90;;;;;;5094133;28;20077;-60
2023/07/18 05:22:49;;;;;;;8.13;4.28;;;20.00;99.90;;;;;;5093867;28;20514;-60
2023/07/18 05:25:16;;;;;;;7.32;4.35;;;20.00;99.90;;;;;;5093908;28;20020;-60
2023/07/18 05:27:42;;;;;;;7.38;4.38;;;20.00;99.90;;;;;;5094456;28;20039;-60
2023/07/18 05:30:16;;;;;;;6.65;4.07;;;20.00;99.90;;;;;;5094015;28;20433;-60
2023/07/18 05:32:43;;;;;;;5.80;3.80;;;20.00;99.90;;;;;;5094136;28;20107;-60
2023/07/18 05:35:13;;;;;;;7.95;4.68;;;19.90;99.90;;;;;;5094005;28;20111;-60
2023/07/18 05:37:40;;;;;;;7.80;4.50;;;19.90;99.90;;;;;;5093830;28;20039;-59
2023/07/18 05:40:09;;;;;;;7.47;4.57;;;19.90;99.90;;;;;;5093012;28;20513;-58
2023/07/18 05:42:39;;;;;;;6.43;4.03;;;20.00;99.90;;;;;;5093840;28;20027;-60
2023/07/18 05:45:07;;;;;;;5.75;4.20;;;20.10;99.90;;;;;;5093918;28;20038;-60
2023/07/18 05:47:34;;;;;;;8.25;4.18;;;20.30;99.90;;;;;;5092377;28;20055;-60
2023/07/18 05:50:00;;;;;;;6.55;4.07;;;20.40;99.90;;;;;;5093547;28;20524;-59
2023/07/18 05:52:26;;;;;;;7.10;4.20;;;20.40;99.90;;;;;;5093386;28;20032;-60
2023/07/18 05:54:52;;;;;;;5.80;4.63;;;20.50;99.90;;;;;;5093521;28;20448;-59
2023/07/18 05:57:18;;;;;;;7.85;4.18;;;20.50;99.90;;;;;;5093330;28;20024;-59
2023/07/18 05:59:44;;;;;;;7.03;4.18;;;20.60;99.90;;;;;;5091058;28;20039;-59
2023/07/18 06:02:09;;;;;;;7.45;4.28;;;20.80;99.90;;;;;;5091263;28;20020;-59
2023/07/18 06:04:36;;;;;;;9.15;4.30;;;20.70;99.90;;;;;;5091411;28;20051;-59
2023/07/18 06:07:02;;;;;;;8.45;4.70;;;20.70;99.90;;;;;;5092672;28;20077;-59
2023/07/18 06:09:28;;;;;;;7.22;4.05;;;20.80;99.90;;;;;;5091710;28;20032;-59
2023/07/18 06:11:54;;;;;;;6.55;4.18;;;20.90;99.90;;;;;;5091745;28;20482;-59
2023/07/18 06:14:19;;;;;;;7.97;4.53;;;20.90;99.90;;;;;;5093051;28;20068;-60
2023/07/18 06:16:46;;;;;;;8.63;4.50;;;20.80;99.90;;;;;;5093046;28;20016;-60
2023/07/18 06:19:12;;;;;;;6.53;4.47;;;20.70;99.90;;;;;;5092976;28;20123;-59
2023/07/18 06:21:38;;;;;;;7.50;5.28;;;20.70;99.90;;;;;;5091535;28;20390;-59
2023/07/18 06:24:05;;;;;;;10.57;6.90;;;20.60;99.90;;;;;;5092527;28;20083;-58
2023/07/18 06:26:30;;;;;;;12.25;6.70;;;20.50;99.90;;;;;;5092933;28;20020;-59
2023/07/18 06:28:56;;;;;;;9.82;6.55;;;20.50;99.90;;;;;;5092989;28;20161;-59
2023/07/18 06:31:22;;;;;;;8.43;5.55;;;20.50;99.90;;;;;;5093028;28;20055;-59
2023/07/18 06:33:48;;;;;;;10.07;5.15;;;20.50;99.90;;;;;;5092898;28;20028;-60
2023/07/18 06:36:15;;;;;;;7.30;4.70;;;20.60;99.90;;;;;;5092745;28;20410;-57
2023/07/18 06:38:41;;;;;;;6.13;4.20;;;20.70;99.90;;;;;;5091997;28;20104;-59
2023/07/18 06:41:07;;;;;;;9.57;4.72;;;20.70;99.90;;;;;;5092828;28;20549;-59
2023/07/18 06:43:32;;;;;;;9.40;4.63;;;20.80;99.90;;;;;;5091644;28;20038;-58
2023/07/18 06:45:59;;;;;;;7.00;4.97;;;20.70;99.90;;;;;;5091930;28;20070;-59
2023/07/18 06:48:25;;;;;;;8.45;5.07;;;20.70;99.90;;;;;;5092015;28;20039;-59
2023/07/18 06:50:53;;;;;;;9.77;5.00;;;20.70;99.90;;;;;;5092439;28;20024;-58
2023/07/18 06:53:20;;;;;;;8.52;4.57;;;20.80;99.90;;;;;;5091178;28;20443;-59
2023/07/18 06:55:49;;;;;;;10.95;4.60;;;20.80;99.90;;;;;;5092186;28;20107;-58
2023/07/18 06:58:19;;;;;;;8.90;4.90;;;20.80;99.90;;;;;;5091463;28;20047;-59
2023/07/18 07:00:46;;;;;;;6.68;4.50;;;21.20;99.90;;;;;;5091978;28;20028;-59
2023/07/18 07:03:13;;;;;;;6.18;4.50;;;21.40;99.90;;;;;;5092358;28;20032;-58
2023/07/18 07:05:42;;;;;;;5.75;4.70;;;21.50;99.90;;;;;;5092047;28;20068;-59
2023/07/18 07:08:08;;;;;;;7.38;4.32;;;21.70;99.90;;;;;;5091511;28;20028;-58
2023/07/18 07:10:39;;;;;;;7.22;4.72;;;21.80;99.90;;;;;;5092324;28;20020;-59
2023/07/18 07:13:04;;;;;;;5.97;4.10;;;21.90;99.90;;;;;;5092017;28;20390;-59
2023/07/18 07:15:31;;;;;;;6.78;4.43;;;22.00;99.90;;;;;;5091793;28;20039;-59
2023/07/18 07:17:57;;;;;;;6.15;4.38;;;22.10;99.90;;;;;;5091416;28;20081;-58
2023/07/18 07:20:24;;;;;;;8.82;4.88;;;22.10;99.90;;;;;;5091516;28;20032;-59
2023/07/18 07:22:51;;;;;;;8.77;4.53;;;22.00;99.90;;;;;;5091436;28;20048;-59
2023/07/18 07:25:28;;;;;;;6.88;4.65;;;22.00;99.90;;;;;;5068375;28;20386;-59
2023/07/18 07:27:54;;;;;;;6.47;4.82;;;22.00;99.90;;;;;;5068249;28;20024;-59
2023/07/18 07:30:20;;;;;;;5.80;4.57;;;22.00;99.90;;;;;;5067234;28;20025;-60
2023/07/18 07:32:50;;;;;;;6.05;4.43;;;21.90;99.90;;;;;;5068207;28;20509;-59
2023/07/18 07:35:19;;;;;;;9.95;4.53;;;21.80;99.90;;;;;;5068424;28;20081;-59
2023/07/18 07:37:51;;;;;;;5.53;4.78;;;21.70;99.90;;;;;;5068145;28;20035;-59
2023/07/18 07:40:17;;;;;;;9.38;5.13;;;21.60;99.90;;;;;;5067707;28;20057;-59
2023/07/18 07:42:46;;;;;;;8.98;4.60;;;21.60;99.90;;;;;;5068241;28;20103;-59
2023/07/18 07:45:12;;;;;;;5.35;4.45;;;21.60;99.90;;;;;;5068586;28;20551;-59
2023/07/18 07:47:39;;;;;;;7.13;4.53;;;21.60;99.90;;;;;;5067817;28;20032;-58
2023/07/18 07:50:06;;;;;;;9.57;4.80;;;21.60;99.90;;;;;;5067058;28;20056;-59
2023/07/18 07:52:32;;;;;;;7.63;4.72;;;21.70;99.90;;;;;;5068098;28;20025;-59
2023/07/18 07:54:58;;;;;;;7.70;4.75;;;21.70;99.90;;;;;;5067772;28;20028;-59
2023/07/18 07:57:23;;;;;;;7.80;5.15;;;21.80;99.90;;;;;;5068124;28;20551;-60
2023/07/18 07:59:51;;;;;;;9.30;5.03;;;21.80;99.90;;;;;;5068004;28;20071;-60
2023/07/18 08:02:20;;;;;;;8.40;5.10;;;21.90;99.90;;;;;;5067542;28;20079;-59
2023/07/18 08:04:47;;;;;;;7.68;5.35;;;21.90;99.90;;;;;;5066824;28;20389;-59
2023/07/18 08:07:13;;;;;;;6.65;4.68;;;21.90;99.90;;;;;;5067912;28;20067;-60
2023/07/18 08:09:39;;;;;;;9.82;5.15;;;22.00;99.90;;;;;;5067643;28;20055;-59
2023/07/18 08:12:05;;;;;;;7.38;4.70;;;22.00;99.90;;;;;;5067834;28;20055;-60
2023/07/18 08:14:34;;;;;;;6.93;5.50;;;22.00;99.90;;;;;;5067665;28;20033;-59
2023/07/18 08:17:01;;;;;;;9.18;5.22;;;22.10;99.90;;;;;;5067327;28;20025;-60
2023/07/18 08:19:27;;;;;;;9.35;4.80;;;22.40;99.90;;;;;;5067284;28;20499;-58
2023/07/18 08:21:53;;;;;;;9.07;5.10;;;22.60;99.90;;;;;;5067455;28;20025;-60
2023/07/18 08:24:19;;;;;;;6.03;4.80;;;22.70;99.90;;;;;;5065882;28;20056;-59
2023/07/18 08:26:45;;;;;;;7.70;4.88;;;23.10;99.90;;;;;;5067140;28;20021;-60
2023/07/18 08:29:10;;;;;;;7.22;4.80;;;23.20;99.90;;;;;;5067346;28;20029;-59
2023/07/18 08:31:36;;;;;;;5.65;4.72;;;23.10;99.90;;;;;;5067349;28;20074;-59
2023/07/18 08:34:02;;;;;;;8.32;5.05;;;23.30;99.90;;;;;;5066915;28;20032;-60
2023/07/18 08:36:29;;;;;;;6.82;4.78;;;23.20;99.90;;;;;;5055533;28;20537;-59
2023/07/18 08:38:54;;;;;;;7.45;5.13;;;23.30;99.90;;;;;;5053832;28;20116;-60
2023/07/18 08:41:20;;;;;;;7.63;5.15;;;23.30;99.90;;;;;;5053895;28;20104;-59
2023/07/18 08:43:48;;;;;;;5.78;4.78;;;23.50;99.90;;;;;;5053789;28;20037;-59
2023/07/18 08:46:14;;;;;;;7.03;5.00;;;23.60;99.90;;;;;;5053885;28;20096;-60
2023/07/18 08:48:44;;;;;;;8.48;5.10;;;23.70;99.90;;;;;;5053211;28;20029;-59
2023/07/18 08:51:14;;;;;;;6.28;4.55;;;23.70;99.90;;;;;;5053768;28;20079;-59
2023/07/18 08:53:43;;;;;;;6.60;5.10;;;23.60;99.90;;;;;;5053815;28;20036;-59
2023/07/18 08:56:09;;;;;;;6.68;5.65;;;23.50;99.90;;;;;;5052572;28;20028;-58
2023/07/18 08:58:38;;;;;;;6.80;5.18;;;23.50;99.90;;;;;;5053550;28;20040;-58
2023/07/18 09:01:08;;;;;;;8.35;5.55;;;23.50;99.90;;;;;;5053504;28;20021;-58
2023/07/18 09:03:34;;;;;;;7.63;5.10;;;23.60;99.90;;;;;;5052946;28;20033;-58
2023/07/18 09:06:15;;;;;;;7.10;5.03;;;23.60;99.90;;;;;;5053358;28;20045;-58
2023/07/18 09:08:44;;;;;;;7.47;5.20;;;23.70;99.90;;;;;;5053472;28;20021;-58
2023/07/18 09:11:12;;;;;;;6.78;4.93;;;23.90;99.90;;;;;;5053390;28;20060;-59
2023/07/18 09:13:40;;;;;;;9.52;5.10;;;24.00;99.90;;;;;;5053170;28;20049;-59
2023/07/18 09:16:17;;;;;;;5.93;5.25;;;24.20;99.90;;;;;;5053445;28;20040;-60
2023/07/18 09:18:54;;;;;;;6.40;5.18;;;24.20;99.90;;;;;;5052806;28;20029;-60
2023/07/18 09:21:20;;;;;;;8.70;5.40;;;24.20;99.90;;;;;;5051346;28;20033;-60
2023/07/18 09:23:47;;;;;;;6.68;5.07;;;24.30;99.90;;;;;;5052572;28;20056;-60
2023/07/18 09:26:18;;;;;;;7.35;5.30;;;24.40;99.90;;;;;;5052664;28;20029;-59
2023/07/18 09:28:45;;;;;;;7.88;5.35;;;24.40;99.90;;;;;;5052588;28;20050;-60
2023/07/18 09:31:20;;;;;;;8.23;5.20;;;24.60;99.90;;;;;;5064043;28;20112;-59
2023/07/18 09:33:46;;;;;;;7.43;5.10;;;24.70;99.90;;;;;;5072478;28;20445;-59
2023/07/18 09:36:33;;;;;;;7.30;5.30;;;24.90;99.90;;;;;;5072346;28;20040;-59
2023/07/18 09:38:59;;;;;;;6.03;5.10;;;25.20;99.90;;;;;;5072624;28;20032;-59
2023/07/18 09:41:24;;;;;;;6.10;5.00;;;25.40;99.90;;;;;;5071987;28;20504;-59
2023/07/18 09:43:53;;;;;;;9.50;5.25;;;25.60;99.90;;;;;;5072131;28;20725;-60
2023/07/18 09:46:19;;;;;;;7.30;5.28;;;25.60;99.90;;;;;;5071474;28;20021;-59
2023/07/18 09:48:45;;;;;;;7.20;4.88;;;25.70;99.90;;;;;;5046837;28;20032;-60
2023/07/18 09:51:15;;;;;;;7.13;5.20;;;25.90;99.90;;;;;;5037062;28;20033;-60
2023/07/18 09:53:45;;;;;;;7.20;5.35;;;26.00;99.90;;;;;;5052310;28;20037;-59
2023/07/18 09:56:14;;;;;;;7.13;5.07;;;26.00;99.90;;;;;;5051532;28;20414;-59
2023/07/18 09:58:42;;;;;;;6.38;4.93;;;26.00;99.90;;;;;;5051069;28;20382;-60
2023/07/18 10:01:11;;;;;;;6.95;5.07;;;26.10;99.90;;;;;;5052011;28;20028;-60
2023/07/18 10:03:39;;;;;;;7.40;5.10;;;26.10;99.90;;;;;;5051723;28;20509;-60
2023/07/18 10:06:10;;;;;;;8.63;5.53;;;26.10;99.90;;;;;;5051848;28;20470;-60
2023/07/18 10:08:38;;;;;;;7.63;5.20;;;26.10;99.90;;;;;;5052219;28;20048;-60
2023/07/18 10:11:07;;;;;;;8.88;5.60;;;26.20;99.90;;;;;;5051962;28;20052;-59
2023/07/18 10:13:55;;;;;;;7.15;5.53;;;26.20;99.90;;;;;;5051557;28;20441;-60
2023/07/18 10:16:22;;;;;;;6.78;5.68;;;26.30;99.90;;;;;;5051639;28;20516;-60
2023/07/18 10:18:51;;;;;;;6.35;5.28;;;26.20;99.90;;;;;;5051636;28;20017;-60
2023/07/18 10:21:34;;;;;;;8.65;5.45;;;26.10;99.90;;;;;;5052210;28;20479;-60
2023/07/18 10:24:23;;;;;;;6.03;4.90;;;26.40;99.90;;;;;;5051605;28;20126;-60
2023/07/18 10:26:52;;;;;;;9.90;5.47;;;26.50;99.90;;;;;;5051109;28;20512;-60
2023/07/18 10:29:18;;;;;;;9.27;5.60;;;26.40;99.90;;;;;;5051360;28;20056;-60
2023/07/18 10:31:44;;;;;;;6.97;5.30;;;26.50;99.90;;;;;;5051669;28;20119;-60
2023/07/18 10:34:14;;;;;;;7.45;4.88;;;26.40;99.90;;;;;;5050716;28;20036;-59
2023/07/18 10:37:00;;;;;;;8.68;5.07;;;26.60;99.90;;;;;;5051341;28;20033;-59
2023/07/18 10:39:49;;;;;;;8.98;5.13;;;26.60;99.90;;;;;;5051588;28;20042;-60
2023/07/18 10:42:28;;;;;;;8.60;5.20;;;26.60;99.90;;;;;;5051228;28;20025;-60
2023/07/18 10:44:59;;;;;;;9.80;5.20;;;26.60;99.90;;;;;;5050903;28;20401;-60
2023/07/18 10:47:25;;;;;;;8.32;5.20;;;26.60;99.90;;;;;;5051456;28;20051;-60
2023/07/18 10:49:52;;;;;;;9.13;5.65;;;26.90;99.90;;;;;;5051224;28;20029;-60
2023/07/18 10:52:19;;;;;;;8.75;5.15;;;27.00;99.90;;;;;;5051018;28;20021;-60
2023/07/18 10:54:50;;;;;;;8.43;5.03;;;27.20;99.90;;;;;;5051366;28;20055;-60
2023/07/18 10:57:16;;;;;;;9.93;5.55;;;27.30;99.90;;;;;;5049691;28;20107;-60
2023/07/18 10:59:45;;;;;;;7.75;5.07;;;27.40;99.90;;;;;;5050602;28;20191;-60
2023/07/18 11:02:12;;;;;;;7.75;5.25;;;27.40;99.90;;;;;;5051095;28;20510;-60
2023/07/18 11:04:38;;;;;;;8.93;5.07;;;27.60;99.90;;;;;;5051164;28;20044;-58
2023/07/18 11:07:04;;;;;;;7.40;4.90;;;27.80;99.90;;;;;;5050499;28;20042;-60
2023/07/18 11:09:31;;;;;;;6.82;4.95;;;28.00;99.90;;;;;;5050973;28;20402;-60
2023/07/18 11:11:56;;;;;;;9.95;4.90;;;28.00;99.90;;;;;;5051059;28;20025;-59
2023/07/18 11:14:23;;;;;;;8.45;4.97;;;28.10;99.90;;;;;;5050855;28;20028;-59
2023/07/18 11:16:49;;;;;;;8.25;5.25;;;28.10;99.90;;;;;;5050872;28;20025;-59
2023/07/18 11:19:15;;;;;;;8.00;4.50;;;28.00;99.90;;;;;;5051304;28;20105;-60
2023/07/18 11:21:41;;;;;;;7.65;4.90;;;28.10;99.90;;;;;;5051148;28;20102;-59
2023/07/18 11:24:08;;;;;;;7.38;5.20;;;28.30;99.90;;;;;;5050443;28;20037;-59
2023/07/18 11:26:33;;;;;;;7.90;5.07;;;28.30;99.90;;;;;;5050775;28;20442;-60
2023/07/18 11:29:00;;;;;;;8.77;4.90;;;28.00;99.90;;;;;;5050319;28;20023;-60
2023/07/18 11:31:30;;;;;;;7.60;4.63;;;28.00;99.90;;;;;;5050302;28;20071;-60
2023/07/18 11:33:57;;;;;;;7.35;4.50;;;28.30;99.90;;;;;;5050928;28;20029;-60
2023/07/18 11:36:29;;;;;;;7.15;4.90;;;28.40;99.90;;;;;;5050565;28;20505;-60
2023/07/18 11:38:54;;;;;;;8.18;5.05;;;28.30;99.90;;;;;;5050441;28;20032;-60
2023/07/18 11:41:39;;;;;;;7.35;5.10;;;28.10;99.90;;;;;;5050097;28;20417;-60
2023/07/18 11:44:06;;;;;;;9.13;5.35;;;28.00;99.90;;;;;;5050255;28;20504;-60
2023/07/18 11:46:43;;;;;;;7.30;4.97;;;28.00;99.90;;;;;;5050402;28;20032;-60
2023/07/18 11:49:12;;;;;;;7.43;4.82;;;28.00;99.90;;;;;;5050494;28;20493;-60
2023/07/18 11:51:40;;;;;;;9.18;4.53;;;28.00;99.90;;;;;;5050507;28;20092;-59
2023/07/18 11:54:06;;;;;;;8.90;5.05;;;28.10;99.90;;;;;;5050386;28;20514;-61
2023/07/18 11:56:34;;;;;;;6.55;4.50;;;28.00;99.90;;;;;;5050399;28;20077;-60
2023/07/18 11:59:00;;;;;;;8.20;4.63;;;27.80;99.90;;;;;;5050685;28;20029;-60
2023/07/18 12:01:26;;;;;;;7.20;5.07;;;27.90;99.90;;;;;;5050595;28;20448;-60
2023/07/18 12:03:53;;;;;;;6.75;5.03;;;28.30;99.90;;;;;;5050331;28;20029;-60
2023/07/18 12:06:19;;;;;;;10.40;4.72;;;28.30;99.90;;;;;;5050208;28;20040;-60
2023/07/18 12:08:45;;;;;;;6.10;4.72;;;28.40;99.90;;;;;;5050289;28;20104;-59
2023/07/18 12:11:11;;;;;;;9.50;4.85;;;28.30;99.90;;;;;;5052743;28;20063;-58
2023/07/18 12:13:38;;;;;;;7.50;4.68;;;28.30;99.90;;;;;;5054421;28;20517;-60
2023/07/18 12:16:04;;;;;;;7.00;5.22;;;28.20;99.90;;;;;;5054184;28;20052;-60
2023/07/18 12:18:30;;;;;;;5.45;4.30;;;28.30;99.90;;;;;;5054448;28;20108;-60
2023/07/18 12:20:56;;;;;;;6.70;4.57;;;28.50;99.90;;;;;;5054117;28;20569;-60
2023/07/18 12:23:21;;;;;;;5.82;4.20;;;28.60;99.90;;;;;;5053847;28;20120;-60
2023/07/18 12:25:47;;;;;;;6.13;4.65;;;28.60;99.90;;;;;;5053884;28;20029;-60
2023/07/18 12:28:13;;;;;;;6.57;4.30;;;28.40;99.90;;;;;;5054389;28;20452;-60
2023/07/18 12:30:38;;;;;;;6.38;4.20;;;28.30;99.90;;;;;;5054084;28;20029;-60
2023/07/18 12:33:04;;;;;;;7.47;4.50;;;28.50;99.90;;;;;;5054080;28;20494;-60
2023/07/18 12:35:30;;;;;;;6.65;4.28;;;28.50;99.90;;;;;;5054269;28;20104;-60
2023/07/18 12:37:55;;;;;;;8.13;4.20;;;28.60;99.90;;;;;;5053930;28;20082;-60
2023/07/18 12:40:22;;;;;;;6.20;4.40;;;28.70;99.90;;;;;;5053582;28;20032;-60
2023/07/18 12:42:48;;;;;;;8.15;4.70;;;28.80;99.90;;;;;;5053942;28;20035;-60
2023/07/18 12:45:14;;;;;;;5.97;4.43;;;28.70;99.90;;;;;;5054155;28;20552;-59